sensor_id;sensor_type;location;lat;lon;timestamp;P1;durP1;ratioP1;P2;durP2;ratioP2
4553;SDS011;2289;48.316;15.174;2022-09-02T00:01:41;10.20;;;6.37;;
4553;SDS011;2289;48.316;15.174;2022-09-02T00:04:12;9.50;;;5.30;;
4553;SDS011;2289;48.316;15.174;2022-09-02T00:06:42;10.93;;;6.43;;
4553;SDS011;2289;48.316;15.174;2022-09-02T00:09:11;23.73;;;7.60;;
4553;SDS011;2289;48.316;15.174;2022-09-02T00:11:43;14.70;;;6.73;;
4553;SDS011;2289;48.316;15.174;2022-09-02T00:14:13;11.87;;;5.60;;
4553;SDS011;2289;48.316;15.174;2022-09-02T00:16:43;11.90;;;8.20;;
4553;SDS011;2289;48.316;15.174;2022-09-02T00:19:17;2.37;;;2.00;;
4553;SDS011;2289;48.316;15.174;2022-09-02T00:21:46;5.57;;;3.23;;
4553;SDS011;2289;48.316;15.174;2022-09-02T00:24:15;5.83;;;3.80;;
4553;SDS011;2289;48.316;15.174;2022-09-02T00:26:44;10.77;;;6.23;;
4553;SDS011;2289;48.316;15.174;2022-09-02T00:29:16;16.10;;;9.57;;
4553;SDS011;2289;48.316;15.174;2022-09-02T00:31:45;16.53;;;10.17;;
4553;SDS011;2289;48.316;15.174;2022-09-02T00:34:17;20.40;;;12.47;;
4553;SDS011;2289;48.316;15.174;2022-09-02T00:36:46;26.70;;;15.53;;
4553;SDS011;2289;48.316;15.174;2022-09-02T00:39:14;10.23;;;6.70;;
4553;SDS011;2289;48.316;15.174;2022-09-02T00:41:43;10.53;;;6.33;;
4553;SDS011;2289;48.316;15.174;2022-09-02T00:44:14;11.90;;;6.47;;
4553;SDS011;2289;48.316;15.174;2022-09-02T00:46:44;14.90;;;10.20;;
4553;SDS011;2289;48.316;15.174;2022-09-02T00:49:13;21.27;;;10.60;;
4553;SDS011;2289;48.316;15.174;2022-09-02T00:51:52;16.20;;;11.03;;
4553;SDS011;2289;48.316;15.174;2022-09-02T00:54:23;17.13;;;8.80;;
4553;SDS011;2289;48.316;15.174;2022-09-02T00:56:57;7.90;;;4.80;;
4553;SDS011;2289;48.316;15.174;2022-09-02T00:59:26;10.30;;;7.37;;
4553;SDS011;2289;48.316;15.174;2022-09-02T01:02:00;9.83;;;5.90;;
4553;SDS011;2289;48.316;15.174;2022-09-02T01:04:28;14.30;;;9.83;;
4553;SDS011;2289;48.316;15.174;2022-09-02T01:06:56;17.13;;;7.70;;
4553;SDS011;2289;48.316;15.174;2022-09-02T01:09:25;15.83;;;8.90;;
4553;SDS011;2289;48.316;15.174;2022-09-02T01:11:53;7.70;;;4.97;;
4553;SDS011;2289;48.316;15.174;2022-09-02T01:14:24;8.27;;;4.30;;
4553;SDS011;2289;48.316;15.174;2022-09-02T01:16:55;12.13;;;5.43;;
4553;SDS011;2289;48.316;15.174;2022-09-02T01:19:28;21.17;;;11.60;;
4553;SDS011;2289;48.316;15.174;2022-09-02T01:21:59;20.30;;;10.40;;
4553;SDS011;2289;48.316;15.174;2022-09-02T01:24:29;16.60;;;10.17;;
4553;SDS011;2289;48.316;15.174;2022-09-02T01:26:58;12.27;;;7.50;;
4553;SDS011;2289;48.316;15.174;2022-09-02T01:29:27;16.30;;;9.13;;
4553;SDS011;2289;48.316;15.174;2022-09-02T01:31:55;14.40;;;8.57;;
4553;SDS011;2289;48.316;15.174;2022-09-02T01:34:24;11.40;;;6.40;;
4553;SDS011;2289;48.316;15.174;2022-09-02T01:36:52;17.63;;;8.00;;
4553;SDS011;2289;48.316;15.174;2022-09-02T01:39:22;24.43;;;13.30;;
4553;SDS011;2289;48.316;15.174;2022-09-02T01:41:50;17.30;;;8.77;;
4553;SDS011;2289;48.316;15.174;2022-09-02T01:44:19;7.97;;;4.67;;
4553;SDS011;2289;48.316;15.174;2022-09-02T01:46:47;3.80;;;3.40;;
4553;SDS011;2289;48.316;15.174;2022-09-02T01:49:24;10.20;;;5.50;;
4553;SDS011;2289;48.316;15.174;2022-09-02T01:51:53;11.80;;;7.07;;
4553;SDS011;2289;48.316;15.174;2022-09-02T01:54:23;17.30;;;8.27;;
4553;SDS011;2289;48.316;15.174;2022-09-02T01:56:51;11.87;;;6.50;;
4553;SDS011;2289;48.316;15.174;2022-09-02T01:59:19;10.47;;;8.00;;
4553;SDS011;2289;48.316;15.174;2022-09-02T02:01:47;16.77;;;9.40;;
4553;SDS011;2289;48.316;15.174;2022-09-02T02:04:16;17.07;;;9.77;;
4553;SDS011;2289;48.316;15.174;2022-09-02T02:06:45;23.47;;;12.67;;
4553;SDS011;2289;48.316;15.174;2022-09-02T02:09:18;20.57;;;9.60;;
4553;SDS011;2289;48.316;15.174;2022-09-02T02:11:48;13.80;;;7.90;;
4553;SDS011;2289;48.316;15.174;2022-09-02T02:14:16;19.63;;;9.57;;
4553;SDS011;2289;48.316;15.174;2022-09-02T02:16:44;23.37;;;12.10;;
4553;SDS011;2289;48.316;15.174;2022-09-02T02:19:15;30.63;;;18.10;;
4553;SDS011;2289;48.316;15.174;2022-09-02T02:21:43;30.47;;;15.87;;
4553;SDS011;2289;48.316;15.174;2022-09-02T02:24:12;26.47;;;16.20;;
4553;SDS011;2289;48.316;15.174;2022-09-02T02:26:40;15.97;;;8.00;;
4553;SDS011;2289;48.316;15.174;2022-09-02T02:29:10;16.20;;;9.90;;
4553;SDS011;2289;48.316;15.174;2022-09-02T02:31:39;21.70;;;13.73;;
4553;SDS011;2289;48.316;15.174;2022-09-02T02:34:08;26.93;;;13.80;;
4553;SDS011;2289;48.316;15.174;2022-09-02T02:36:36;25.30;;;13.13;;
4553;SDS011;2289;48.316;15.174;2022-09-02T02:39:05;14.60;;;10.40;;
4553;SDS011;2289;48.316;15.174;2022-09-02T02:44:58;12.20;;;8.53;;
4553;SDS011;2289;48.316;15.174;2022-09-02T02:47:26;9.60;;;6.47;;
4553;SDS011;2289;48.316;15.174;2022-09-02T02:49:54;12.60;;;7.10;;
4553;SDS011;2289;48.316;15.174;2022-09-02T02:52:22;14.43;;;7.93;;
4553;SDS011;2289;48.316;15.174;2022-09-02T02:54:50;12.80;;;7.20;;
4553;SDS011;2289;48.316;15.174;2022-09-02T02:57:18;12.73;;;7.00;;
4553;SDS011;2289;48.316;15.174;2022-09-02T02:59:48;10.50;;;7.10;;
4553;SDS011;2289;48.316;15.174;2022-09-02T03:02:21;11.07;;;7.13;;
4553;SDS011;2289;48.316;15.174;2022-09-02T03:04:49;10.03;;;5.93;;
4553;SDS011;2289;48.316;15.174;2022-09-02T03:07:19;9.63;;;6.67;;
4553;SDS011;2289;48.316;15.174;2022-09-02T03:09:48;8.73;;;6.00;;
4553;SDS011;2289;48.316;15.174;2022-09-02T03:12:16;8.57;;;5.30;;
4553;SDS011;2289;48.316;15.174;2022-09-02T03:14:44;16.30;;;7.50;;
4553;SDS011;2289;48.316;15.174;2022-09-02T03:17:12;8.67;;;5.37;;
4553;SDS011;2289;48.316;15.174;2022-09-02T03:19:42;7.03;;;5.80;;
4553;SDS011;2289;48.316;15.174;2022-09-02T03:22:10;5.70;;;5.10;;
4553;SDS011;2289;48.316;15.174;2022-09-02T03:24:45;9.77;;;6.20;;
4553;SDS011;2289;48.316;15.174;2022-09-02T03:27:14;6.90;;;4.17;;
4553;SDS011;2289;48.316;15.174;2022-09-02T03:29:42;5.20;;;2.27;;
4553;SDS011;2289;48.316;15.174;2022-09-02T03:32:10;8.97;;;2.90;;
4553;SDS011;2289;48.316;15.174;2022-09-02T03:34:42;3.10;;;2.27;;
4553;SDS011;2289;48.316;15.174;2022-09-02T03:37:10;1.93;;;1.70;;
4553;SDS011;2289;48.316;15.174;2022-09-02T03:39:38;2.40;;;1.60;;
4553;SDS011;2289;48.316;15.174;2022-09-02T03:42:07;4.00;;;1.77;;
4553;SDS011;2289;48.316;15.174;2022-09-02T03:44:45;1.70;;;1.23;;
4553;SDS011;2289;48.316;15.174;2022-09-02T03:47:13;4.67;;;2.03;;
4553;SDS011;2289;48.316;15.174;2022-09-02T03:49:47;2.20;;;1.77;;
4553;SDS011;2289;48.316;15.174;2022-09-02T03:52:16;5.87;;;2.20;;
4553;SDS011;2289;48.316;15.174;2022-09-02T03:54:44;4.23;;;2.20;;
4553;SDS011;2289;48.316;15.174;2022-09-02T03:57:12;8.07;;;2.33;;
4553;SDS011;2289;48.316;15.174;2022-09-02T03:59:40;5.40;;;3.70;;
4553;SDS011;2289;48.316;15.174;2022-09-02T04:02:09;7.13;;;2.50;;
4553;SDS011;2289;48.316;15.174;2022-09-02T04:04:38;3.40;;;2.00;;
4553;SDS011;2289;48.316;15.174;2022-09-02T04:07:08;9.73;;;2.80;;
4553;SDS011;2289;48.316;15.174;2022-09-02T04:09:36;25.10;;;11.27;;
4553;SDS011;2289;48.316;15.174;2022-09-02T04:12:08;7.87;;;3.20;;
4553;SDS011;2289;48.316;15.174;2022-09-02T04:14:36;10.00;;;3.93;;
4553;SDS011;2289;48.316;15.174;2022-09-02T04:17:05;15.20;;;2.87;;
4553;SDS011;2289;48.316;15.174;2022-09-02T04:19:33;8.73;;;3.00;;
4553;SDS011;2289;48.316;15.174;2022-09-02T04:22:02;8.20;;;2.40;;
4553;SDS011;2289;48.316;15.174;2022-09-02T04:24:32;15.83;;;3.33;;
4553;SDS011;2289;48.316;15.174;2022-09-02T04:27:00;18.43;;;3.07;;
4553;SDS011;2289;48.316;15.174;2022-09-02T04:29:29;10.90;;;3.00;;
4553;SDS011;2289;48.316;15.174;2022-09-02T04:31:58;6.10;;;3.20;;
4553;SDS011;2289;48.316;15.174;2022-09-02T04:34:26;9.90;;;2.83;;
4553;SDS011;2289;48.316;15.174;2022-09-02T04:36:54;10.57;;;4.33;;
4553;SDS011;2289;48.316;15.174;2022-09-02T04:39:25;12.27;;;4.27;;
4553;SDS011;2289;48.316;15.174;2022-09-02T04:41:55;7.20;;;2.43;;
4553;SDS011;2289;48.316;15.174;2022-09-02T04:44:23;9.60;;;3.40;;
4553;SDS011;2289;48.316;15.174;2022-09-02T04:46:52;8.07;;;2.47;;
4553;SDS011;2289;48.316;15.174;2022-09-02T04:49:20;17.23;;;3.80;;
4553;SDS011;2289;48.316;15.174;2022-09-02T04:51:48;2.50;;;1.97;;
4553;SDS011;2289;48.316;15.174;2022-09-02T04:54:20;5.10;;;3.13;;
4553;SDS011;2289;48.316;15.174;2022-09-02T04:56:48;5.90;;;2.60;;
4553;SDS011;2289;48.316;15.174;2022-09-02T04:59:17;8.27;;;2.07;;
4553;SDS011;2289;48.316;15.174;2022-09-02T05:01:47;2.20;;;2.00;;
4553;SDS011;2289;48.316;15.174;2022-09-02T05:04:17;6.63;;;2.40;;
4553;SDS011;2289;48.316;15.174;2022-09-02T05:06:50;7.63;;;3.00;;
4553;SDS011;2289;48.316;15.174;2022-09-02T05:13:40;4.40;;;2.70;;
4553;SDS011;2289;48.316;15.174;2022-09-02T05:16:17;10.33;;;3.53;;
4553;SDS011;2289;48.316;15.174;2022-09-02T05:18:46;8.90;;;4.17;;
4553;SDS011;2289;48.316;15.174;2022-09-02T05:21:15;6.70;;;3.17;;
4553;SDS011;2289;48.316;15.174;2022-09-02T05:23:43;9.27;;;3.73;;
4553;SDS011;2289;48.316;15.174;2022-09-02T05:26:12;5.70;;;3.83;;
4553;SDS011;2289;48.316;15.174;2022-09-02T05:28:46;7.40;;;3.20;;
4553;SDS011;2289;48.316;15.174;2022-09-02T05:31:16;11.73;;;2.50;;
4553;SDS011;2289;48.316;15.174;2022-09-02T05:33:45;12.03;;;3.13;;
4553;SDS011;2289;48.316;15.174;2022-09-02T05:36:15;5.20;;;2.60;;
4553;SDS011;2289;48.316;15.174;2022-09-02T05:38:45;5.13;;;2.50;;
4553;SDS011;2289;48.316;15.174;2022-09-02T05:41:16;5.00;;;2.87;;
4553;SDS011;2289;48.316;15.174;2022-09-02T05:43:49;4.80;;;2.80;;
4553;SDS011;2289;48.316;15.174;2022-09-02T05:46:20;5.13;;;3.43;;
4553;SDS011;2289;48.316;15.174;2022-09-02T05:48:49;8.60;;;3.43;;
4553;SDS011;2289;48.316;15.174;2022-09-02T05:51:39;3.90;;;2.80;;
4553;SDS011;2289;48.316;15.174;2022-09-02T05:54:08;2.33;;;2.13;;
4553;SDS011;2289;48.316;15.174;2022-09-02T05:56:41;2.10;;;1.93;;
4553;SDS011;2289;48.316;15.174;2022-09-02T05:59:10;3.77;;;2.20;;
4553;SDS011;2289;48.316;15.174;2022-09-02T06:01:41;10.67;;;3.00;;
4553;SDS011;2289;48.316;15.174;2022-09-02T06:07:58;6.30;;;4.93;;
4553;SDS011;2289;48.316;15.174;2022-09-02T06:10:27;2.73;;;2.30;;
4553;SDS011;2289;48.316;15.174;2022-09-02T06:12:55;3.47;;;2.40;;
4553;SDS011;2289;48.316;15.174;2022-09-02T06:15:24;3.73;;;2.50;;
4553;SDS011;2289;48.316;15.174;2022-09-02T06:17:54;2.70;;;1.87;;
4553;SDS011;2289;48.316;15.174;2022-09-02T06:20:24;3.73;;;1.87;;
4553;SDS011;2289;48.316;15.174;2022-09-02T06:22:57;5.37;;;2.63;;
4553;SDS011;2289;48.316;15.174;2022-09-02T06:25:25;6.60;;;2.90;;
4553;SDS011;2289;48.316;15.174;2022-09-02T06:27:53;3.73;;;2.13;;
4553;SDS011;2289;48.316;15.174;2022-09-02T06:30:27;2.70;;;1.70;;
4553;SDS011;2289;48.316;15.174;2022-09-02T06:32:58;7.63;;;2.50;;
4553;SDS011;2289;48.316;15.174;2022-09-02T06:35:29;2.27;;;1.93;;
4553;SDS011;2289;48.316;15.174;2022-09-02T06:37:58;2.30;;;1.70;;
4553;SDS011;2289;48.316;15.174;2022-09-02T06:40:26;4.80;;;2.03;;
4553;SDS011;2289;48.316;15.174;2022-09-02T06:42:54;2.67;;;1.80;;
4553;SDS011;2289;48.316;15.174;2022-09-02T06:45:22;2.40;;;1.60;;
4553;SDS011;2289;48.316;15.174;2022-09-02T06:47:51;1.60;;;1.50;;
4553;SDS011;2289;48.316;15.174;2022-09-02T06:50:21;1.30;;;1.20;;
4553;SDS011;2289;48.316;15.174;2022-09-02T06:52:52;1.80;;;1.47;;
4553;SDS011;2289;48.316;15.174;2022-09-02T06:55:20;1.63;;;1.40;;
4553;SDS011;2289;48.316;15.174;2022-09-02T06:57:48;1.40;;;1.30;;
4553;SDS011;2289;48.316;15.174;2022-09-02T07:00:17;1.63;;;1.40;;
4553;SDS011;2289;48.316;15.174;2022-09-02T07:02:46;1.83;;;1.53;;
4553;SDS011;2289;48.316;15.174;2022-09-02T07:05:38;1.17;;;1.07;;
4553;SDS011;2289;48.316;15.174;2022-09-02T07:08:06;2.37;;;1.70;;
4553;SDS011;2289;48.316;15.174;2022-09-02T07:10:36;2.60;;;1.13;;
4553;SDS011;2289;48.316;15.174;2022-09-02T07:13:05;4.00;;;1.37;;
4553;SDS011;2289;48.316;15.174;2022-09-02T07:15:33;2.93;;;1.33;;
4553;SDS011;2289;48.316;15.174;2022-09-02T07:18:02;1.67;;;1.20;;
4553;SDS011;2289;48.316;15.174;2022-09-02T07:20:31;1.50;;;1.30;;
4553;SDS011;2289;48.316;15.174;2022-09-02T07:23:00;1.20;;;1.10;;
4553;SDS011;2289;48.316;15.174;2022-09-02T07:25:29;3.73;;;1.60;;
4553;SDS011;2289;48.316;15.174;2022-09-02T07:27:58;2.63;;;1.37;;
4553;SDS011;2289;48.316;15.174;2022-09-02T07:30:26;1.57;;;1.33;;
4553;SDS011;2289;48.316;15.174;2022-09-02T07:32:54;1.47;;;1.37;;
4553;SDS011;2289;48.316;15.174;2022-09-02T07:35:22;1.17;;;1.00;;
4553;SDS011;2289;48.316;15.174;2022-09-02T07:37:51;2.10;;;1.90;;
4553;SDS011;2289;48.316;15.174;2022-09-02T07:40:20;2.20;;;1.43;;
4553;SDS011;2289;48.316;15.174;2022-09-02T07:42:49;6.70;;;3.10;;
4553;SDS011;2289;48.316;15.174;2022-09-02T07:45:17;5.97;;;3.80;;
4553;SDS011;2289;48.316;15.174;2022-09-02T07:47:46;2.13;;;1.40;;
4553;SDS011;2289;48.316;15.174;2022-09-02T07:50:15;3.23;;;1.70;;
4553;SDS011;2289;48.316;15.174;2022-09-02T07:52:46;3.10;;;1.90;;
4553;SDS011;2289;48.316;15.174;2022-09-02T07:55:16;1.50;;;1.40;;
4553;SDS011;2289;48.316;15.174;2022-09-02T07:57:45;1.90;;;1.30;;
4553;SDS011;2289;48.316;15.174;2022-09-02T08:00:17;2.80;;;1.83;;
4553;SDS011;2289;48.316;15.174;2022-09-02T08:03:02;1.83;;;1.40;;
4553;SDS011;2289;48.316;15.174;2022-09-02T08:05:37;4.97;;;1.77;;
4553;SDS011;2289;48.316;15.174;2022-09-02T08:08:11;2.50;;;1.40;;
4553;SDS011;2289;48.316;15.174;2022-09-02T08:10:42;4.17;;;1.50;;
4553;SDS011;2289;48.316;15.174;2022-09-02T08:13:13;2.20;;;1.57;;
4553;SDS011;2289;48.316;15.174;2022-09-02T08:15:42;1.27;;;1.17;;
4553;SDS011;2289;48.316;15.174;2022-09-02T08:18:11;2.93;;;1.57;;
4553;SDS011;2289;48.316;15.174;2022-09-02T08:20:48;4.40;;;1.40;;
4553;SDS011;2289;48.316;15.174;2022-09-02T08:23:16;2.00;;;1.40;;
4553;SDS011;2289;48.316;15.174;2022-09-02T08:26:01;1.50;;;1.40;;
4553;SDS011;2289;48.316;15.174;2022-09-02T08:28:32;1.67;;;1.57;;
4553;SDS011;2289;48.316;15.174;2022-09-02T08:31:03;1.37;;;1.10;;
4553;SDS011;2289;48.316;15.174;2022-09-02T08:33:32;2.80;;;1.13;;
4553;SDS011;2289;48.316;15.174;2022-09-02T08:36:01;2.40;;;1.20;;
4553;SDS011;2289;48.316;15.174;2022-09-02T08:38:30;1.63;;;1.50;;
4553;SDS011;2289;48.316;15.174;2022-09-02T08:40:58;1.90;;;1.60;;
4553;SDS011;2289;48.316;15.174;2022-09-02T08:43:29;1.57;;;1.30;;
4553;SDS011;2289;48.316;15.174;2022-09-02T08:46:02;2.40;;;1.50;;
4553;SDS011;2289;48.316;15.174;2022-09-02T08:48:35;4.10;;;1.60;;
4553;SDS011;2289;48.316;15.174;2022-09-02T08:51:07;4.00;;;1.37;;
4553;SDS011;2289;48.316;15.174;2022-09-02T08:53:42;2.60;;;1.20;;
4553;SDS011;2289;48.316;15.174;2022-09-02T08:56:13;4.10;;;1.43;;
4553;SDS011;2289;48.316;15.174;2022-09-02T08:58:45;4.40;;;1.47;;
4553;SDS011;2289;48.316;15.174;2022-09-02T09:01:24;3.00;;;1.70;;
4553;SDS011;2289;48.316;15.174;2022-09-02T09:04:01;1.83;;;1.30;;
4553;SDS011;2289;48.316;15.174;2022-09-02T09:06:37;1.27;;;1.17;;
4553;SDS011;2289;48.316;15.174;2022-09-02T09:09:12;2.23;;;2.03;;
4553;SDS011;2289;48.316;15.174;2022-09-02T09:11:48;3.13;;;1.40;;
4553;SDS011;2289;48.316;15.174;2022-09-02T09:14:26;3.13;;;1.30;;
4553;SDS011;2289;48.316;15.174;2022-09-02T09:16:57;1.90;;;1.30;;
4553;SDS011;2289;48.316;15.174;2022-09-02T09:19:30;2.90;;;1.67;;
4553;SDS011;2289;48.316;15.174;2022-09-02T09:22:03;1.83;;;1.33;;
4553;SDS011;2289;48.316;15.174;2022-09-02T09:24:33;1.73;;;1.63;;
4553;SDS011;2289;48.316;15.174;2022-09-02T09:27:03;3.97;;;1.90;;
4553;SDS011;2289;48.316;15.174;2022-09-02T09:29:35;2.00;;;1.53;;
4553;SDS011;2289;48.316;15.174;2022-09-02T09:32:05;3.13;;;1.40;;
4553;SDS011;2289;48.316;15.174;2022-09-02T09:35:00;1.83;;;1.67;;
4553;SDS011;2289;48.316;15.174;2022-09-02T09:37:30;3.20;;;2.00;;
4553;SDS011;2289;48.316;15.174;2022-09-02T09:42:59;2.97;;;1.50;;
4553;SDS011;2289;48.316;15.174;2022-09-02T09:45:42;1.10;;;1.00;;
4553;SDS011;2289;48.316;15.174;2022-09-02T09:51:08;3.10;;;0.93;;
4553;SDS011;2289;48.316;15.174;2022-09-02T09:53:38;2.67;;;1.30;;
4553;SDS011;2289;48.316;15.174;2022-09-02T09:56:20;1.30;;;1.20;;
4553;SDS011;2289;48.316;15.174;2022-09-02T09:59:04;1.30;;;1.17;;
4553;SDS011;2289;48.316;15.174;2022-09-02T10:01:36;3.10;;;1.20;;
4553;SDS011;2289;48.316;15.174;2022-09-02T10:04:06;1.60;;;1.50;;
4553;SDS011;2289;48.316;15.174;2022-09-02T10:06:56;3.93;;;1.23;;
4553;SDS011;2289;48.316;15.174;2022-09-02T10:09:30;2.93;;;1.43;;
4553;SDS011;2289;48.316;15.174;2022-09-02T10:12:02;1.80;;;1.30;;
4553;SDS011;2289;48.316;15.174;2022-09-02T10:14:37;1.23;;;1.13;;
4553;SDS011;2289;48.316;15.174;2022-09-02T10:17:18;1.37;;;1.27;;
4553;SDS011;2289;48.316;15.174;2022-09-02T10:19:59;6.10;;;1.57;;
4553;SDS011;2289;48.316;15.174;2022-09-02T10:22:36;3.73;;;1.17;;
4553;SDS011;2289;48.316;15.174;2022-09-02T10:25:28;1.67;;;1.33;;
4553;SDS011;2289;48.316;15.174;2022-09-02T10:28:04;2.17;;;1.53;;
4553;SDS011;2289;48.316;15.174;2022-09-02T10:30:42;2.80;;;1.47;;
4553;SDS011;2289;48.316;15.174;2022-09-02T10:33:17;1.40;;;1.30;;
4553;SDS011;2289;48.316;15.174;2022-09-02T10:35:50;2.60;;;1.87;;
4553;SDS011;2289;48.316;15.174;2022-09-02T10:38:26;1.60;;;1.50;;
4553;SDS011;2289;48.316;15.174;2022-09-02T10:41:00;1.40;;;1.30;;
4553;SDS011;2289;48.316;15.174;2022-09-02T10:43:43;3.07;;;1.40;;
4553;SDS011;2289;48.316;15.174;2022-09-02T10:46:23;1.43;;;0.93;;
4553;SDS011;2289;48.316;15.174;2022-09-02T10:48:55;1.70;;;1.50;;
4553;SDS011;2289;48.316;15.174;2022-09-02T10:51:30;1.30;;;1.20;;
4553;SDS011;2289;48.316;15.174;2022-09-02T10:54:06;1.73;;;1.50;;
4553;SDS011;2289;48.316;15.174;2022-09-02T10:56:49;2.83;;;1.30;;
4553;SDS011;2289;48.316;15.174;2022-09-02T10:59:24;1.23;;;1.13;;
4553;SDS011;2289;48.316;15.174;2022-09-02T11:01:58;1.67;;;1.43;;
4553;SDS011;2289;48.316;15.174;2022-09-02T11:04:36;2.10;;;1.30;;
4553;SDS011;2289;48.316;15.174;2022-09-02T11:07:09;2.30;;;1.60;;
4553;SDS011;2289;48.316;15.174;2022-09-02T11:09:43;2.23;;;1.93;;
4553;SDS011;2289;48.316;15.174;2022-09-02T11:12:15;1.20;;;1.10;;
4553;SDS011;2289;48.316;15.174;2022-09-02T11:14:50;1.50;;;1.30;;
4553;SDS011;2289;48.316;15.174;2022-09-02T11:17:23;1.57;;;1.30;;
4553;SDS011;2289;48.316;15.174;2022-09-02T11:19:57;1.83;;;1.13;;
4553;SDS011;2289;48.316;15.174;2022-09-02T11:22:29;1.90;;;1.40;;
4553;SDS011;2289;48.316;15.174;2022-09-02T11:25:04;1.03;;;0.90;;
4553;SDS011;2289;48.316;15.174;2022-09-02T11:27:36;5.43;;;1.43;;
4553;SDS011;2289;48.316;15.174;2022-09-02T11:30:10;1.67;;;1.33;;
4553;SDS011;2289;48.316;15.174;2022-09-02T11:32:41;2.87;;;1.20;;
4553;SDS011;2289;48.316;15.174;2022-09-02T11:35:13;1.40;;;1.30;;
4553;SDS011;2289;48.316;15.174;2022-09-02T11:37:46;2.70;;;1.50;;
4553;SDS011;2289;48.316;15.174;2022-09-02T11:40:20;4.50;;;1.27;;
4553;SDS011;2289;48.316;15.174;2022-09-02T11:43:03;1.90;;;1.00;;
4553;SDS011;2289;48.316;15.174;2022-09-02T11:45:42;1.63;;;1.10;;
4553;SDS011;2289;48.316;15.174;2022-09-02T11:48:39;2.47;;;1.30;;
4553;SDS011;2289;48.316;15.174;2022-09-02T11:54:41;1.50;;;1.20;;
4553;SDS011;2289;48.316;15.174;2022-09-02T11:57:14;1.97;;;1.40;;
4553;SDS011;2289;48.316;15.174;2022-09-02T12:02:42;1.60;;;1.23;;
4553;SDS011;2289;48.316;15.174;2022-09-02T12:11:35;2.00;;;1.40;;
4553;SDS011;2289;48.316;15.174;2022-09-02T12:14:08;3.10;;;1.40;;
4553;SDS011;2289;48.316;15.174;2022-09-02T12:16:40;1.87;;;1.20;;
4553;SDS011;2289;48.316;15.174;2022-09-02T12:19:16;1.60;;;1.30;;
4553;SDS011;2289;48.316;15.174;2022-09-02T12:24:52;3.10;;;1.70;;
4553;SDS011;2289;48.316;15.174;2022-09-02T12:27:23;1.57;;;0.90;;
4553;SDS011;2289;48.316;15.174;2022-09-02T12:29:53;2.70;;;1.60;;
4553;SDS011;2289;48.316;15.174;2022-09-02T12:35:33;2.53;;;1.50;;
4553;SDS011;2289;48.316;15.174;2022-09-02T12:38:21;2.17;;;1.20;;
4553;SDS011;2289;48.316;15.174;2022-09-02T12:40:54;1.73;;;1.30;;
4553;SDS011;2289;48.316;15.174;2022-09-02T12:43:45;2.87;;;1.77;;
4553;SDS011;2289;48.316;15.174;2022-09-02T12:46:25;1.30;;;1.20;;
4553;SDS011;2289;48.316;15.174;2022-09-02T12:48:58;3.23;;;1.20;;
4553;SDS011;2289;48.316;15.174;2022-09-02T12:54:21;1.43;;;0.87;;
4553;SDS011;2289;48.316;15.174;2022-09-02T12:56:52;3.00;;;1.50;;
4553;SDS011;2289;48.316;15.174;2022-09-02T12:59:27;1.50;;;1.30;;
4553;SDS011;2289;48.316;15.174;2022-09-02T13:02:11;1.73;;;1.20;;
4553;SDS011;2289;48.316;15.174;2022-09-02T13:04:47;2.97;;;1.57;;
4553;SDS011;2289;48.316;15.174;2022-09-02T13:16:58;2.30;;;1.17;;
4553;SDS011;2289;48.316;15.174;2022-09-02T13:20:06;2.60;;;1.20;;
4553;SDS011;2289;48.316;15.174;2022-09-02T13:29:21;3.43;;;1.17;;
4553;SDS011;2289;48.316;15.174;2022-09-02T13:32:11;1.43;;;1.00;;
4553;SDS011;2289;48.316;15.174;2022-09-02T13:34:41;3.13;;;1.23;;
4553;SDS011;2289;48.316;15.174;2022-09-02T13:37:26;2.10;;;2.00;;
4553;SDS011;2289;48.316;15.174;2022-09-02T13:39:59;1.90;;;1.27;;
4553;SDS011;2289;48.316;15.174;2022-09-02T13:42:29;1.43;;;1.33;;
4553;SDS011;2289;48.316;15.174;2022-09-02T13:45:11;2.03;;;1.20;;
4553;SDS011;2289;48.316;15.174;2022-09-02T13:47:42;1.40;;;0.90;;
4553;SDS011;2289;48.316;15.174;2022-09-02T13:50:12;1.00;;;0.90;;
4553;SDS011;2289;48.316;15.174;2022-09-02T13:52:42;3.87;;;1.17;;
4553;SDS011;2289;48.316;15.174;2022-09-02T13:55:32;3.10;;;1.17;;
4553;SDS011;2289;48.316;15.174;2022-09-02T13:58:01;1.50;;;1.10;;
4553;SDS011;2289;48.316;15.174;2022-09-02T14:00:32;1.43;;;1.13;;
4553;SDS011;2289;48.316;15.174;2022-09-02T14:03:05;2.93;;;1.10;;
4553;SDS011;2289;48.316;15.174;2022-09-02T14:05:35;1.30;;;1.20;;
4553;SDS011;2289;48.316;15.174;2022-09-02T14:08:14;4.90;;;1.20;;
4553;SDS011;2289;48.316;15.174;2022-09-02T14:10:47;3.20;;;1.37;;
4553;SDS011;2289;48.316;15.174;2022-09-02T14:13:21;2.40;;;1.33;;
4553;SDS011;2289;48.316;15.174;2022-09-02T14:15:51;2.60;;;1.37;;
4553;SDS011;2289;48.316;15.174;2022-09-02T14:18:22;1.23;;;1.00;;
4553;SDS011;2289;48.316;15.174;2022-09-02T14:20:57;2.37;;;1.43;;
4553;SDS011;2289;48.316;15.174;2022-09-02T14:23:28;1.40;;;1.30;;
4553;SDS011;2289;48.316;15.174;2022-09-02T14:25:59;2.30;;;1.20;;
4553;SDS011;2289;48.316;15.174;2022-09-02T14:28:28;1.67;;;1.03;;
4553;SDS011;2289;48.316;15.174;2022-09-02T14:30:58;3.47;;;1.07;;
4553;SDS011;2289;48.316;15.174;2022-09-02T14:33:39;1.33;;;1.23;;
4553;SDS011;2289;48.316;15.174;2022-09-02T14:36:30;1.40;;;1.20;;
4553;SDS011;2289;48.316;15.174;2022-09-02T14:39:08;1.47;;;1.37;;
4553;SDS011;2289;48.316;15.174;2022-09-02T14:41:41;1.53;;;1.20;;
4553;SDS011;2289;48.316;15.174;2022-09-02T14:44:14;2.60;;;1.27;;
4553;SDS011;2289;48.316;15.174;2022-09-02T14:46:45;1.93;;;1.47;;
4553;SDS011;2289;48.316;15.174;2022-09-02T14:49:18;6.70;;;1.30;;
4553;SDS011;2289;48.316;15.174;2022-09-02T14:51:48;5.00;;;1.13;;
4553;SDS011;2289;48.316;15.174;2022-09-02T14:54:33;1.30;;;1.20;;
4553;SDS011;2289;48.316;15.174;2022-09-02T14:57:05;2.80;;;1.57;;
4553;SDS011;2289;48.316;15.174;2022-09-02T14:59:33;3.00;;;1.50;;
4553;SDS011;2289;48.316;15.174;2022-09-02T15:02:02;4.53;;;1.33;;
4553;SDS011;2289;48.316;15.174;2022-09-02T15:04:32;1.83;;;1.17;;
4553;SDS011;2289;48.316;15.174;2022-09-02T15:07:02;3.97;;;1.70;;
4553;SDS011;2289;48.316;15.174;2022-09-02T15:09:32;1.40;;;1.30;;
4553;SDS011;2289;48.316;15.174;2022-09-02T15:12:01;1.17;;;1.07;;
4553;SDS011;2289;48.316;15.174;2022-09-02T15:14:29;1.63;;;1.50;;
4553;SDS011;2289;48.316;15.174;2022-09-02T15:17:06;1.10;;;1.00;;
4553;SDS011;2289;48.316;15.174;2022-09-02T15:19:36;2.60;;;1.20;;
4553;SDS011;2289;48.316;15.174;2022-09-02T15:22:04;1.83;;;1.40;;
4553;SDS011;2289;48.316;15.174;2022-09-02T15:24:33;1.40;;;1.10;;
4553;SDS011;2289;48.316;15.174;2022-09-02T15:27:01;1.43;;;1.33;;
4553;SDS011;2289;48.316;15.174;2022-09-02T15:29:29;2.13;;;1.67;;
4553;SDS011;2289;48.316;15.174;2022-09-02T15:31:57;2.20;;;1.20;;
4553;SDS011;2289;48.316;15.174;2022-09-02T15:34:26;7.43;;;1.47;;
4553;SDS011;2289;48.316;15.174;2022-09-02T15:36:55;2.00;;;1.37;;
4553;SDS011;2289;48.316;15.174;2022-09-02T15:39:23;1.43;;;1.27;;
4553;SDS011;2289;48.316;15.174;2022-09-02T15:41:52;2.70;;;1.30;;
4553;SDS011;2289;48.316;15.174;2022-09-02T15:44:21;2.33;;;1.33;;
4553;SDS011;2289;48.316;15.174;2022-09-02T15:46:51;2.40;;;1.53;;
4553;SDS011;2289;48.316;15.174;2022-09-02T15:49:20;1.70;;;1.50;;
4553;SDS011;2289;48.316;15.174;2022-09-02T15:51:49;2.50;;;1.77;;
4553;SDS011;2289;48.316;15.174;2022-09-02T15:54:22;2.57;;;1.80;;
4553;SDS011;2289;48.316;15.174;2022-09-02T15:56:52;2.20;;;1.10;;
4553;SDS011;2289;48.316;15.174;2022-09-02T15:59:22;1.77;;;1.40;;
4553;SDS011;2289;48.316;15.174;2022-09-02T16:01:50;2.83;;;1.87;;
4553;SDS011;2289;48.316;15.174;2022-09-02T16:04:20;1.37;;;1.27;;
4553;SDS011;2289;48.316;15.174;2022-09-02T16:06:51;1.70;;;1.60;;
4553;SDS011;2289;48.316;15.174;2022-09-02T16:09:22;2.73;;;1.30;;
4553;SDS011;2289;48.316;15.174;2022-09-02T16:11:51;1.43;;;1.33;;
4553;SDS011;2289;48.316;15.174;2022-09-02T16:14:22;7.00;;;1.90;;
4553;SDS011;2289;48.316;15.174;2022-09-02T16:16:51;1.30;;;1.20;;
4553;SDS011;2289;48.316;15.174;2022-09-02T16:19:24;3.17;;;2.27;;
4553;SDS011;2289;48.316;15.174;2022-09-02T16:21:56;3.17;;;2.27;;